sensor_id;sensor_type;location;lat;lon;timestamp;P1;durP1;ratioP1;P2;durP2;ratioP2
60030;SDS011;45901;47.600;9.890;2023-09-19T00:00:19;2.30;;;1.13;;
60030;SDS011;45901;47.600;9.890;2023-09-19T00:02:51;2.33;;;1.30;;
60030;SDS011;45901;47.600;9.890;2023-09-19T00:05:19;1.97;;;1.07;;
60030;SDS011;45901;47.600;9.890;2023-09-19T00:07:49;1.63;;;1.10;;
60030;SDS011;45901;47.600;9.890;2023-09-19T00:10:20;3.97;;;1.07;;
60030;SDS011;45901;47.600;9.890;2023-09-19T00:12:49;3.63;;;1.13;;
60030;SDS011;45901;47.600;9.890;2023-09-19T00:15:18;1.60;;;0.90;;
60030;SDS011;45901;47.600;9.890;2023-09-19T00:17:45;1.60;;;1.00;;
60030;SDS011;45901;47.600;9.890;2023-09-19T00:20:12;2.50;;;0.73;;
60030;SDS011;45901;47.600;9.890;2023-09-19T00:22:42;1.47;;;0.70;;
60030;SDS011;45901;47.600;9.890;2023-09-19T00:25:10;2.80;;;1.03;;
60030;SDS011;45901;47.600;9.890;2023-09-19T00:27:42;2.33;;;1.00;;
60030;SDS011;45901;47.600;9.890;2023-09-19T00:30:10;5.27;;;1.13;;
60030;SDS011;45901;47.600;9.890;2023-09-19T00:32:41;3.67;;;1.20;;
60030;SDS011;45901;47.600;9.890;2023-09-19T00:35:09;2.17;;;0.60;;
60030;SDS011;45901;47.600;9.890;2023-09-19T00:37:36;5.70;;;1.07;;
60030;SDS011;45901;47.600;9.890;2023-09-19T00:40:05;1.63;;;0.70;;
60030;SDS011;45901;47.600;9.890;2023-09-19T00:42:37;1.97;;;1.10;;
60030;SDS011;45901;47.600;9.890;2023-09-19T00:45:07;2.80;;;0.90;;
60030;SDS011;45901;47.600;9.890;2023-09-19T00:47:37;1.67;;;0.97;;
60030;SDS011;45901;47.600;9.890;2023-09-19T00:50:04;3.97;;;1.13;;
60030;SDS011;45901;47.600;9.890;2023-09-19T00:52:35;2.30;;;1.00;;
60030;SDS011;45901;47.600;9.890;2023-09-19T00:55:04;4.97;;;1.20;;
60030;SDS011;45901;47.600;9.890;2023-09-19T00:57:32;2.97;;;1.17;;
60030;SDS011;45901;47.600;9.890;2023-09-19T01:00:01;4.47;;;1.30;;
60030;SDS011;45901;47.600;9.890;2023-09-19T01:02:34;3.63;;;1.10;;
60030;SDS011;45901;47.600;9.890;2023-09-19T01:05:02;2.90;;;1.10;;
60030;SDS011;45901;47.600;9.890;2023-09-19T01:07:31;4.67;;;1.13;;
60030;SDS011;45901;47.600;9.890;2023-09-19T01:10:00;3.77;;;1.40;;
60030;SDS011;45901;47.600;9.890;2023-09-19T01:12:31;2.50;;;1.17;;
60030;SDS011;45901;47.600;9.890;2023-09-19T01:15:21;3.13;;;1.20;;
60030;SDS011;45901;47.600;9.890;2023-09-19T01:18:02;2.23;;;0.90;;
60030;SDS011;45901;47.600;9.890;2023-09-19T01:20:44;2.83;;;0.90;;
60030;SDS011;45901;47.600;9.890;2023-09-19T01:23:20;2.57;;;0.93;;
60030;SDS011;45901;47.600;9.890;2023-09-19T01:26:05;3.03;;;1.37;;
60030;SDS011;45901;47.600;9.890;2023-09-19T01:28:54;1.63;;;1.00;;
60030;SDS011;45901;47.600;9.890;2023-09-19T01:31:40;2.17;;;0.97;;
60030;SDS011;45901;47.600;9.890;2023-09-19T01:34:11;4.07;;;1.00;;
60030;SDS011;45901;47.600;9.890;2023-09-19T01:36:38;2.70;;;1.13;;
60030;SDS011;45901;47.600;9.890;2023-09-19T01:39:05;2.80;;;1.00;;
60030;SDS011;45901;47.600;9.890;2023-09-19T01:41:49;1.47;;;0.80;;
60030;SDS011;45901;47.600;9.890;2023-09-19T01:44:28;2.30;;;0.90;;
60030;SDS011;45901;47.600;9.890;2023-09-19T01:47:07;2.77;;;0.80;;
60030;SDS011;45901;47.600;9.890;2023-09-19T01:49:44;1.23;;;0.63;;
60030;SDS011;45901;47.600;9.890;2023-09-19T01:52:22;1.67;;;1.00;;
60030;SDS011;45901;47.600;9.890;2023-09-19T01:55:00;2.17;;;0.87;;
60030;SDS011;45901;47.600;9.890;2023-09-19T01:57:33;1.60;;;0.60;;
60030;SDS011;45901;47.600;9.890;2023-09-19T02:00:07;1.93;;;0.70;;
60030;SDS011;45901;47.600;9.890;2023-09-19T02:02:39;3.60;;;0.63;;
60030;SDS011;45901;47.600;9.890;2023-09-19T02:05:10;1.77;;;0.80;;
60030;SDS011;45901;47.600;9.890;2023-09-19T02:07:38;1.00;;;0.63;;
60030;SDS011;45901;47.600;9.890;2023-09-19T02:10:06;1.03;;;0.70;;
60030;SDS011;45901;47.600;9.890;2023-09-19T02:12:35;1.87;;;0.90;;
60030;SDS011;45901;47.600;9.890;2023-09-19T02:15:03;2.40;;;0.70;;
60030;SDS011;45901;47.600;9.890;2023-09-19T02:17:32;1.67;;;0.80;;
60030;SDS011;45901;47.600;9.890;2023-09-19T02:20:00;3.33;;;0.77;;
60030;SDS011;45901;47.600;9.890;2023-09-19T02:22:35;2.60;;;0.90;;
60030;SDS011;45901;47.600;9.890;2023-09-19T02:25:04;3.10;;;1.03;;
60030;SDS011;45901;47.600;9.890;2023-09-19T02:27:32;3.50;;;0.80;;
60030;SDS011;45901;47.600;9.890;2023-09-19T02:29:59;3.87;;;0.77;;
60030;SDS011;45901;47.600;9.890;2023-09-19T02:32:29;1.70;;;0.63;;
60030;SDS011;45901;47.600;9.890;2023-09-19T02:34:57;1.77;;;0.80;;
60030;SDS011;45901;47.600;9.890;2023-09-19T02:37:25;1.20;;;0.60;;
60030;SDS011;45901;47.600;9.890;2023-09-19T02:39:52;2.97;;;1.00;;
60030;SDS011;45901;47.600;9.890;2023-09-19T02:42:19;2.20;;;0.73;;
60030;SDS011;45901;47.600;9.890;2023-09-19T02:44:47;2.50;;;0.80;;
60030;SDS011;45901;47.600;9.890;2023-09-19T02:47:14;1.53;;;0.80;;
60030;SDS011;45901;47.600;9.890;2023-09-19T02:49:41;3.07;;;1.00;;
60030;SDS011;45901;47.600;9.890;2023-09-19T02:52:09;1.07;;;0.70;;
60030;SDS011;45901;47.600;9.890;2023-09-19T02:54:38;2.10;;;0.80;;
60030;SDS011;45901;47.600;9.890;2023-09-19T02:57:05;2.37;;;0.80;;
60030;SDS011;45901;47.600;9.890;2023-09-19T02:59:33;1.77;;;0.90;;
60030;SDS011;45901;47.600;9.890;2023-09-19T03:02:02;2.97;;;0.70;;
60030;SDS011;45901;47.600;9.890;2023-09-19T03:04:36;2.57;;;1.03;;
60030;SDS011;45901;47.600;9.890;2023-09-19T03:07:04;1.67;;;0.90;;
60030;SDS011;45901;47.600;9.890;2023-09-19T03:09:31;1.63;;;0.77;;
60030;SDS011;45901;47.600;9.890;2023-09-19T03:11:59;1.33;;;0.87;;
60030;SDS011;45901;47.600;9.890;2023-09-19T03:14:27;2.80;;;0.97;;
60030;SDS011;45901;47.600;9.890;2023-09-19T03:16:55;2.23;;;0.90;;
60030;SDS011;45901;47.600;9.890;2023-09-19T03:19:22;2.00;;;0.73;;
60030;SDS011;45901;47.600;9.890;2023-09-19T03:21:51;1.07;;;0.77;;
60030;SDS011;45901;47.600;9.890;2023-09-19T03:24:18;1.80;;;0.77;;
60030;SDS011;45901;47.600;9.890;2023-09-19T03:26:45;2.03;;;0.90;;
60030;SDS011;45901;47.600;9.890;2023-09-19T03:29:14;1.67;;;0.77;;
60030;SDS011;45901;47.600;9.890;2023-09-19T03:31:42;4.37;;;1.17;;
60030;SDS011;45901;47.600;9.890;2023-09-19T03:34:09;0.83;;;0.63;;
60030;SDS011;45901;47.600;9.890;2023-09-19T03:36:36;2.07;;;1.03;;
60030;SDS011;45901;47.600;9.890;2023-09-19T03:39:04;1.20;;;0.80;;
60030;SDS011;45901;47.600;9.890;2023-09-19T03:41:32;2.47;;;0.90;;
60030;SDS011;45901;47.600;9.890;2023-09-19T03:44:01;2.27;;;1.20;;
60030;SDS011;45901;47.600;9.890;2023-09-19T03:46:30;1.63;;;1.00;;
60030;SDS011;45901;47.600;9.890;2023-09-19T03:48:58;3.00;;;1.00;;
60030;SDS011;45901;47.600;9.890;2023-09-19T03:51:25;1.83;;;1.00;;
60030;SDS011;45901;47.600;9.890;2023-09-19T03:53:52;2.17;;;0.97;;
60030;SDS011;45901;47.600;9.890;2023-09-19T03:56:21;0.93;;;0.57;;
60030;SDS011;45901;47.600;9.890;2023-09-19T03:58:49;0.83;;;0.60;;
60030;SDS011;45901;47.600;9.890;2023-09-19T04:01:16;1.57;;;0.77;;
60030;SDS011;45901;47.600;9.890;2023-09-19T04:03:45;2.70;;;0.87;;
60030;SDS011;45901;47.600;9.890;2023-09-19T04:06:17;2.73;;;0.80;;
60030;SDS011;45901;47.600;9.890;2023-09-19T04:08:44;4.33;;;0.90;;
60030;SDS011;45901;47.600;9.890;2023-09-19T04:11:13;2.23;;;0.80;;
60030;SDS011;45901;47.600;9.890;2023-09-19T04:13:40;1.87;;;0.80;;
60030;SDS011;45901;47.600;9.890;2023-09-19T04:16:07;1.57;;;0.83;;
60030;SDS011;45901;47.600;9.890;2023-09-19T04:18:35;1.47;;;0.77;;
60030;SDS011;45901;47.600;9.890;2023-09-19T04:21:06;1.60;;;1.00;;
60030;SDS011;45901;47.600;9.890;2023-09-19T04:23:33;2.00;;;0.90;;
60030;SDS011;45901;47.600;9.890;2023-09-19T04:26:00;1.20;;;0.73;;
60030;SDS011;45901;47.600;9.890;2023-09-19T04:28:29;2.07;;;0.93;;
60030;SDS011;45901;47.600;9.890;2023-09-19T04:30:56;2.17;;;0.70;;
60030;SDS011;45901;47.600;9.890;2023-09-19T04:33:24;1.77;;;0.70;;
60030;SDS011;45901;47.600;9.890;2023-09-19T04:35:52;1.30;;;0.77;;
60030;SDS011;45901;47.600;9.890;2023-09-19T04:38:21;1.73;;;0.80;;
60030;SDS011;45901;47.600;9.890;2023-09-19T04:40:48;1.53;;;0.87;;
60030;SDS011;45901;47.600;9.890;2023-09-19T04:43:15;5.07;;;0.90;;
60030;SDS011;45901;47.600;9.890;2023-09-19T04:45:42;1.40;;;0.70;;
60030;SDS011;45901;47.600;9.890;2023-09-19T04:48:09;0.93;;;0.60;;
60030;SDS011;45901;47.600;9.890;2023-09-19T04:50:41;1.60;;;0.90;;
60030;SDS011;45901;47.600;9.890;2023-09-19T04:53:08;2.17;;;1.10;;
60030;SDS011;45901;47.600;9.890;2023-09-19T04:55:37;1.27;;;0.90;;
60030;SDS011;45901;47.600;9.890;2023-09-19T04:58:04;2.97;;;0.80;;
60030;SDS011;45901;47.600;9.890;2023-09-19T05:00:31;2.13;;;0.90;;
60030;SDS011;45901;47.600;9.890;2023-09-19T05:03:00;2.77;;;0.97;;
60030;SDS011;45901;47.600;9.890;2023-09-19T05:05:29;2.13;;;0.90;;
60030;SDS011;45901;47.600;9.890;2023-09-19T05:07:56;3.73;;;0.80;;
60030;SDS011;45901;47.600;9.890;2023-09-19T05:10:24;1.90;;;0.80;;
60030;SDS011;45901;47.600;9.890;2023-09-19T05:12:53;3.03;;;1.47;;
60030;SDS011;45901;47.600;9.890;2023-09-19T05:15:20;4.00;;;1.10;;
60030;SDS011;45901;47.600;9.890;2023-09-19T05:17:48;4.90;;;0.93;;
60030;SDS011;45901;47.600;9.890;2023-09-19T05:20:16;2.30;;;0.90;;
60030;SDS011;45901;47.600;9.890;2023-09-19T05:22:50;0.77;;;0.60;;
60030;SDS011;45901;47.600;9.890;2023-09-19T05:25:23;1.93;;;0.70;;
60030;SDS011;45901;47.600;9.890;2023-09-19T05:27:54;2.20;;;0.97;;
60030;SDS011;45901;47.600;9.890;2023-09-19T05:30:24;2.40;;;0.90;;
60030;SDS011;45901;47.600;9.890;2023-09-19T05:32:54;2.07;;;0.80;;
60030;SDS011;45901;47.600;9.890;2023-09-19T05:35:22;2.10;;;0.80;;
60030;SDS011;45901;47.600;9.890;2023-09-19T05:37:50;3.00;;;0.70;;
60030;SDS011;45901;47.600;9.890;2023-09-19T05:40:17;1.80;;;0.80;;
60030;SDS011;45901;47.600;9.890;2023-09-19T05:42:45;1.50;;;0.90;;
60030;SDS011;45901;47.600;9.890;2023-09-19T05:45:13;3.27;;;0.60;;
60030;SDS011;45901;47.600;9.890;2023-09-19T05:47:44;3.13;;;0.57;;
60030;SDS011;45901;47.600;9.890;2023-09-19T05:50:12;1.40;;;0.57;;
60030;SDS011;45901;47.600;9.890;2023-09-19T05:52:40;1.73;;;0.60;;
60030;SDS011;45901;47.600;9.890;2023-09-19T05:55:08;0.80;;;0.70;;
60030;SDS011;45901;47.600;9.890;2023-09-19T05:57:36;0.97;;;0.63;;
60030;SDS011;45901;47.600;9.890;2023-09-19T06:00:04;1.37;;;0.40;;
60030;SDS011;45901;47.600;9.890;2023-09-19T06:02:36;1.97;;;0.70;;
60030;SDS011;45901;47.600;9.890;2023-09-19T07:37:46;2.77;;;1.17;;
60030;SDS011;45901;47.600;9.890;2023-09-19T07:40:14;1.60;;;0.83;;
60030;SDS011;45901;47.600;9.890;2023-09-19T07:42:42;2.00;;;0.97;;
60030;SDS011;45901;47.600;9.890;2023-09-19T07:45:12;3.33;;;1.13;;
60030;SDS011;45901;47.600;9.890;2023-09-19T07:47:43;4.30;;;1.57;;
60030;SDS011;45901;47.600;9.890;2023-09-19T07:50:12;2.40;;;0.70;;
60030;SDS011;45901;47.600;9.890;2023-09-19T07:52:41;1.53;;;0.90;;
60030;SDS011;45901;47.600;9.890;2023-09-19T07:55:08;3.20;;;0.90;;
60030;SDS011;45901;47.600;9.890;2023-09-19T07:57:36;2.47;;;0.80;;
60030;SDS011;45901;47.600;9.890;2023-09-19T08:00:04;0.90;;;0.80;;
60030;SDS011;45901;47.600;9.890;2023-09-19T08:02:34;1.90;;;0.80;;
60030;SDS011;45901;47.600;9.890;2023-09-19T08:05:03;3.23;;;0.93;;
60030;SDS011;45901;47.600;9.890;2023-09-19T08:07:34;1.80;;;0.70;;
60030;SDS011;45901;47.600;9.890;2023-09-19T08:10:04;3.17;;;0.80;;
60030;SDS011;45901;47.600;9.890;2023-09-19T08:12:40;1.17;;;0.70;;
60030;SDS011;45901;47.600;9.890;2023-09-19T08:15:12;0.97;;;0.63;;
60030;SDS011;45901;47.600;9.890;2023-09-19T08:17:39;1.67;;;0.73;;
60030;SDS011;45901;47.600;9.890;2023-09-19T08:20:07;3.07;;;0.73;;
60030;SDS011;45901;47.600;9.890;2023-09-19T08:22:42;3.03;;;0.80;;
60030;SDS011;45901;47.600;9.890;2023-09-19T08:25:14;1.23;;;0.63;;
60030;SDS011;45901;47.600;9.890;2023-09-19T08:27:43;1.13;;;0.80;;
60030;SDS011;45901;47.600;9.890;2023-09-19T08:30:13;3.23;;;0.80;;
60030;SDS011;45901;47.600;9.890;2023-09-19T08:32:41;1.53;;;0.80;;
60030;SDS011;45901;47.600;9.890;2023-09-19T08:35:09;1.27;;;0.70;;
60030;SDS011;45901;47.600;9.890;2023-09-19T08:37:39;2.30;;;1.00;;
60030;SDS011;45901;47.600;9.890;2023-09-19T08:40:06;3.73;;;1.10;;
60030;SDS011;45901;47.600;9.890;2023-09-19T08:42:49;3.90;;;1.00;;
60030;SDS011;45901;47.600;9.890;2023-09-19T08:45:18;1.63;;;0.60;;
60030;SDS011;45901;47.600;9.890;2023-09-19T08:47:46;4.13;;;0.83;;
60030;SDS011;45901;47.600;9.890;2023-09-19T08:53:29;3.63;;;0.80;;
60030;SDS011;45901;47.600;9.890;2023-09-19T09:50:36;2.77;;;1.10;;
60030;SDS011;45901;47.600;9.890;2023-09-19T09:53:22;2.90;;;0.80;;
60030;SDS011;45901;47.600;9.890;2023-09-19T09:55:56;1.53;;;0.83;;
60030;SDS011;45901;47.600;9.890;2023-09-19T09:58:25;3.07;;;0.90;;
60030;SDS011;45901;47.600;9.890;2023-09-19T10:00:55;2.97;;;0.60;;
60030;SDS011;45901;47.600;9.890;2023-09-19T10:03:30;4.87;;;1.30;;
60030;SDS011;45901;47.600;9.890;2023-09-19T10:06:05;3.47;;;0.97;;
60030;SDS011;45901;47.600;9.890;2023-09-19T10:09:00;2.20;;;0.73;;
60030;SDS011;45901;47.600;9.890;2023-09-19T10:11:36;5.07;;;1.00;;
60030;SDS011;45901;47.600;9.890;2023-09-19T10:14:09;1.33;;;0.73;;
60030;SDS011;45901;47.600;9.890;2023-09-19T10:16:40;2.47;;;0.67;;
60030;SDS011;45901;47.600;9.890;2023-09-19T10:19:12;1.37;;;0.60;;
60030;SDS011;45901;47.600;9.890;2023-09-19T10:21:51;1.73;;;0.80;;
60030;SDS011;45901;47.600;9.890;2023-09-19T10:24:22;2.57;;;0.70;;
60030;SDS011;45901;47.600;9.890;2023-09-19T10:26:50;3.70;;;0.60;;
60030;SDS011;45901;47.600;9.890;2023-09-19T10:29:17;2.43;;;1.07;;
60030;SDS011;45901;47.600;9.890;2023-09-19T10:31:46;2.10;;;0.80;;
60030;SDS011;45901;47.600;9.890;2023-09-19T10:34:15;2.17;;;0.70;;
60030;SDS011;45901;47.600;9.890;2023-09-19T10:36:44;1.77;;;0.70;;
60030;SDS011;45901;47.600;9.890;2023-09-19T10:39:14;3.70;;;0.87;;
60030;SDS011;45901;47.600;9.890;2023-09-19T10:41:47;2.53;;;1.13;;
60030;SDS011;45901;47.600;9.890;2023-09-19T10:44:21;2.47;;;1.13;;
60030;SDS011;45901;47.600;9.890;2023-09-19T10:46:50;1.53;;;1.07;;
60030;SDS011;45901;47.600;9.890;2023-09-19T10:49:18;2.47;;;1.00;;
60030;SDS011;45901;47.600;9.890;2023-09-19T10:51:46;2.27;;;1.03;;
60030;SDS011;45901;47.600;9.890;2023-09-19T10:54:21;3.70;;;1.70;;
60030;SDS011;45901;47.600;9.890;2023-09-19T10:56:53;5.07;;;1.97;;
60030;SDS011;45901;47.600;9.890;2023-09-19T10:59:24;7.53;;;1.30;;
60030;SDS011;45901;47.600;9.890;2023-09-19T11:01:56;4.63;;;1.20;;
60030;SDS011;45901;47.600;9.890;2023-09-19T11:04:24;1.67;;;0.90;;
60030;SDS011;45901;47.600;9.890;2023-09-19T11:07:10;3.90;;;1.00;;
60030;SDS011;45901;47.600;9.890;2023-09-19T11:10:11;5.63;;;1.40;;
60030;SDS011;45901;47.600;9.890;2023-09-19T11:13:23;3.97;;;1.20;;
60030;SDS011;45901;47.600;9.890;2023-09-19T11:18:51;3.33;;;0.90;;
60030;SDS011;45901;47.600;9.890;2023-09-19T11:21:41;4.43;;;1.13;;
60030;SDS011;45901;47.600;9.890;2023-09-19T11:24:32;1.50;;;0.93;;
60030;SDS011;45901;47.600;9.890;2023-09-19T11:27:10;5.77;;;1.30;;
60030;SDS011;45901;47.600;9.890;2023-09-19T11:29:42;5.17;;;1.03;;
60030;SDS011;45901;47.600;9.890;2023-09-19T11:32:09;4.47;;;1.50;;
60030;SDS011;45901;47.600;9.890;2023-09-19T11:34:43;3.57;;;1.20;;
60030;SDS011;45901;47.600;9.890;2023-09-19T11:47:04;2.70;;;0.73;;
60030;SDS011;45901;47.600;9.890;2023-09-19T11:49:40;1.83;;;0.70;;
60030;SDS011;45901;47.600;9.890;2023-09-19T11:52:07;2.90;;;1.03;;
60030;SDS011;45901;47.600;9.890;2023-09-19T11:54:35;2.07;;;1.00;;
60030;SDS011;45901;47.600;9.890;2023-09-19T11:57:06;2.90;;;0.83;;
60030;SDS011;45901;47.600;9.890;2023-09-19T11:59:38;2.63;;;1.00;;
60030;SDS011;45901;47.600;9.890;2023-09-19T12:02:06;1.13;;;0.60;;
60030;SDS011;45901;47.600;9.890;2023-09-19T12:04:36;2.17;;;0.83;;
60030;SDS011;45901;47.600;9.890;2023-09-19T12:07:21;1.17;;;0.60;;
60030;SDS011;45901;47.600;9.890;2023-09-19T12:09:48;1.50;;;0.70;;
60030;SDS011;45901;47.600;9.890;2023-09-19T12:12:29;4.73;;;0.90;;
60030;SDS011;45901;47.600;9.890;2023-09-19T12:14:59;2.63;;;1.20;;
60030;SDS011;45901;47.600;9.890;2023-09-19T12:17:34;1.53;;;0.47;;
60030;SDS011;45901;47.600;9.890;2023-09-19T12:20:02;1.30;;;0.80;;
60030;SDS011;45901;47.600;9.890;2023-09-19T12:22:39;1.10;;;0.50;;
60030;SDS011;45901;47.600;9.890;2023-09-19T12:25:06;0.73;;;0.60;;
60030;SDS011;45901;47.600;9.890;2023-09-19T12:27:41;1.33;;;0.70;;
60030;SDS011;45901;47.600;9.890;2023-09-19T12:30:11;2.00;;;0.50;;
60030;SDS011;45901;47.600;9.890;2023-09-19T12:32:40;2.63;;;0.80;;
60030;SDS011;45901;47.600;9.890;2023-09-19T12:35:07;1.30;;;0.93;;
60030;SDS011;45901;47.600;9.890;2023-09-19T12:37:36;1.80;;;0.77;;
60030;SDS011;45901;47.600;9.890;2023-09-19T12:40:05;2.33;;;0.80;;
60030;SDS011;45901;47.600;9.890;2023-09-19T12:42:45;1.33;;;0.70;;
60030;SDS011;45901;47.600;9.890;2023-09-19T12:45:15;1.23;;;0.70;;
60030;SDS011;45901;47.600;9.890;2023-09-19T12:51:00;1.93;;;0.80;;
60030;SDS011;45901;47.600;9.890;2023-09-19T12:53:41;1.83;;;0.70;;
60030;SDS011;45901;47.600;9.890;2023-09-19T12:56:26;1.70;;;1.00;;
60030;SDS011;45901;47.600;9.890;2023-09-19T12:59:13;2.30;;;0.40;;
60030;SDS011;45901;47.600;9.890;2023-09-19T13:01:43;1.17;;;0.50;;
60030;SDS011;45901;47.600;9.890;2023-09-19T13:04:13;1.07;;;0.50;;
60030;SDS011;45901;47.600;9.890;2023-09-19T13:06:44;2.33;;;0.70;;
60030;SDS011;45901;47.600;9.890;2023-09-19T13:12:55;4.40;;;0.77;;
60030;SDS011;45901;47.600;9.890;2023-09-19T13:19:45;1.03;;;0.60;;
60030;SDS011;45901;47.600;9.890;2023-09-19T13:22:37;3.43;;;0.90;;
60030;SDS011;45901;47.600;9.890;2023-09-19T13:25:08;0.87;;;0.63;;
60030;SDS011;45901;47.600;9.890;2023-09-19T13:27:39;2.07;;;0.57;;
60030;SDS011;45901;47.600;9.890;2023-09-19T13:30:10;1.07;;;0.50;;
60030;SDS011;45901;47.600;9.890;2023-09-19T13:39:18;2.77;;;0.73;;
60030;SDS011;45901;47.600;9.890;2023-09-19T14:57:33;3.27;;;0.70;;
60030;SDS011;45901;47.600;9.890;2023-09-19T15:00:22;1.67;;;0.50;;
60030;SDS011;45901;47.600;9.890;2023-09-19T15:03:35;1.43;;;0.50;;
60030;SDS011;45901;47.600;9.890;2023-09-19T15:06:15;1.43;;;0.70;;
60030;SDS011;45901;47.600;9.890;2023-09-19T15:24:02;1.90;;;0.70;;
60030;SDS011;45901;47.600;9.890;2023-09-19T15:26:33;1.77;;;0.80;;
60030;SDS011;45901;47.600;9.890;2023-09-19T15:29:04;0.40;;;0.40;;
60030;SDS011;45901;47.600;9.890;2023-09-19T15:31:31;1.97;;;0.80;;
60030;SDS011;45901;47.600;9.890;2023-09-19T15:34:01;1.30;;;0.80;;
60030;SDS011;45901;47.600;9.890;2023-09-19T15:36:30;1.27;;;0.70;;
60030;SDS011;45901;47.600;9.890;2023-09-19T15:38:58;1.10;;;0.60;;
60030;SDS011;45901;47.600;9.890;2023-09-19T15:41:27;1.77;;;0.70;;
60030;SDS011;45901;47.600;9.890;2023-09-19T15:43:56;1.07;;;0.67;;
60030;SDS011;45901;47.600;9.890;2023-09-19T15:46:26;2.40;;;0.73;;
60030;SDS011;45901;47.600;9.890;2023-09-19T15:48:54;2.10;;;0.70;;
60030;SDS011;45901;47.600;9.890;2023-09-19T15:51:22;0.70;;;0.50;;
60030;SDS011;45901;47.600;9.890;2023-09-19T15:53:52;1.63;;;0.73;;
60030;SDS011;45901;47.600;9.890;2023-09-19T15:56:20;3.00;;;0.70;;
60030;SDS011;45901;47.600;9.890;2023-09-19T15:58:50;1.40;;;0.70;;
60030;SDS011;45901;47.600;9.890;2023-09-19T16:01:18;2.43;;;0.70;;
60030;SDS011;45901;47.600;9.890;2023-09-19T16:03:46;1.90;;;0.70;;
60030;SDS011;45901;47.600;9.890;2023-09-19T16:06:15;1.00;;;0.67;;
60030;SDS011;45901;47.600;9.890;2023-09-19T16:08:44;3.03;;;0.60;;
60030;SDS011;45901;47.600;9.890;2023-09-19T16:11:14;1.50;;;0.60;;
60030;SDS011;45901;47.600;9.890;2023-09-19T16:13:43;1.57;;;0.60;;
60030;SDS011;45901;47.600;9.890;2023-09-19T16:16:11;0.90;;;0.57;;
60030;SDS011;45901;47.600;9.890;2023-09-19T16:18:45;2.40;;;0.57;;
60030;SDS011;45901;47.600;9.890;2023-09-19T16:21:14;2.87;;;0.70;;
60030;SDS011;45901;47.600;9.890;2023-09-19T17:52:47;2.40;;;0.80;;
60030;SDS011;45901;47.600;9.890;2023-09-19T17:55:31;2.20;;;0.97;;
60030;SDS011;45901;47.600;9.890;2023-09-19T17:58:02;2.43;;;1.20;;
60030;SDS011;45901;47.600;9.890;2023-09-19T18:00:32;3.60;;;0.83;;
60030;SDS011;45901;47.600;9.890;2023-09-19T18:03:02;3.83;;;1.20;;
60030;SDS011;45901;47.600;9.890;2023-09-19T18:05:30;3.13;;;1.70;;
60030;SDS011;45901;47.600;9.890;2023-09-19T18:07:57;3.73;;;1.40;;
60030;SDS011;45901;47.600;9.890;2023-09-19T18:10:42;2.70;;;1.60;;
60030;SDS011;45901;47.600;9.890;2023-09-19T18:13:09;2.90;;;1.33;;
60030;SDS011;45901;47.600;9.890;2023-09-19T18:15:38;2.90;;;1.60;;
60030;SDS011;45901;47.600;9.890;2023-09-19T18:18:05;3.33;;;1.67;;
60030;SDS011;45901;47.600;9.890;2023-09-19T18:20:33;4.30;;;1.67;;
60030;SDS011;45901;47.600;9.890;2023-09-19T18:23:02;2.73;;;1.67;;
60030;SDS011;45901;47.600;9.890;2023-09-19T18:25:31;5.73;;;1.80;;
60030;SDS011;45901;47.600;9.890;2023-09-19T18:27:59;4.37;;;1.30;;
60030;SDS011;45901;47.600;9.890;2023-09-19T18:30:26;3.43;;;1.57;;
60030;SDS011;45901;47.600;9.890;2023-09-19T18:32:54;2.83;;;1.90;;
60030;SDS011;45901;47.600;9.890;2023-09-19T18:35:21;5.10;;;1.80;;
60030;SDS011;45901;47.600;9.890;2023-09-19T18:37:50;3.27;;;1.83;;
60030;SDS011;45901;47.600;9.890;2023-09-19T18:40:20;5.20;;;2.70;;
60030;SDS011;45901;47.600;9.890;2023-09-19T18:42:47;4.13;;;1.90;;
60030;SDS011;45901;47.600;9.890;2023-09-19T18:45:14;2.67;;;1.40;;
60030;SDS011;45901;47.600;9.890;2023-09-19T18:47:41;2.43;;;1.30;;
60030;SDS011;45901;47.600;9.890;2023-09-19T18:50:10;3.83;;;1.53;;
60030;SDS011;45901;47.600;9.890;2023-09-19T18:52:38;1.97;;;1.10;;
60030;SDS011;45901;47.600;9.890;2023-09-19T18:55:07;3.77;;;1.30;;
60030;SDS011;45901;47.600;9.890;2023-09-19T18:57:35;4.67;;;1.50;;
60030;SDS011;45901;47.600;9.890;2023-09-19T19:00:03;3.50;;;1.50;;
60030;SDS011;45901;47.600;9.890;2023-09-19T19:02:33;1.50;;;1.10;;
60030;SDS011;45901;47.600;9.890;2023-09-19T19:05:02;1.97;;;1.27;;
60030;SDS011;45901;47.600;9.890;2023-09-19T19:07:31;3.77;;;1.13;;
60030;SDS011;45901;47.600;9.890;2023-09-19T19:09:59;3.40;;;1.30;;
60030;SDS011;45901;47.600;9.890;2023-09-19T19:12:29;3.20;;;1.30;;
60030;SDS011;45901;47.600;9.890;2023-09-19T19:14:56;2.70;;;1.27;;
60030;SDS011;45901;47.600;9.890;2023-09-19T19:17:24;3.40;;;1.40;;
60030;SDS011;45901;47.600;9.890;2023-09-19T19:19:51;4.93;;;1.57;;
60030;SDS011;45901;47.600;9.890;2023-09-19T19:22:18;2.17;;;1.40;;
60030;SDS011;45901;47.600;9.890;2023-09-19T19:24:49;2.57;;;1.40;;
60030;SDS011;45901;47.600;9.890;2023-09-19T19:27:17;3.67;;;1.27;;
60030;SDS011;45901;47.600;9.890;2023-09-19T19:29:44;2.50;;;1.30;;
60030;SDS011;45901;47.600;9.890;2023-09-19T19:32:12;2.13;;;1.40;;
60030;SDS011;45901;47.600;9.890;2023-09-19T19:34:39;4.23;;;1.23;;
60030;SDS011;45901;47.600;9.890;2023-09-19T19:37:07;1.27;;;0.90;;
60030;SDS011;45901;47.600;9.890;2023-09-19T19:39:48;3.13;;;1.30;;
60030;SDS011;45901;47.600;9.890;2023-09-19T19:45:55;1.10;;;0.73;;
60030;SDS011;45901;47.600;9.890;2023-09-19T19:48:23;2.40;;;0.80;;
60030;SDS011;45901;47.600;9.890;2023-09-19T19:50:50;3.77;;;0.90;;
60030;SDS011;45901;47.600;9.890;2023-09-19T19:53:19;1.17;;;0.50;;
60030;SDS011;45901;47.600;9.890;2023-09-19T19:55:48;1.93;;;0.60;;
60030;SDS011;45901;47.600;9.890;2023-09-19T19:58:48;1.63;;;0.67;;
60030;SDS011;45901;47.600;9.890;2023-09-19T20:01:50;2.00;;;0.73;;
60030;SDS011;45901;47.600;9.890;2023-09-19T20:04:20;1.83;;;0.60;;
60030;SDS011;45901;47.600;9.890;2023-09-19T20:06:54;1.23;;;0.60;;
60030;SDS011;45901;47.600;9.890;2023-09-19T20:09:21;1.20;;;0.60;;
60030;SDS011;45901;47.600;9.890;2023-09-19T20:11:49;1.07;;;0.70;;
60030;SDS011;45901;47.600;9.890;2023-09-19T20:14:17;1.13;;;0.53;;
60030;SDS011;45901;47.600;9.890;2023-09-19T20:16:44;2.77;;;0.77;;
60030;SDS011;45901;47.600;9.890;2023-09-19T20:19:11;0.90;;;0.57;;
60030;SDS011;45901;47.600;9.890;2023-09-19T20:21:39;1.57;;;0.80;;
60030;SDS011;45901;47.600;9.890;2023-09-19T20:24:06;1.87;;;0.80;;
60030;SDS011;45901;47.600;9.890;2023-09-19T20:26:35;2.77;;;0.70;;
60030;SDS011;45901;47.600;9.890;2023-09-19T20:29:03;1.73;;;0.60;;
60030;SDS011;45901;47.600;9.890;2023-09-19T20:31:32;2.37;;;0.70;;
60030;SDS011;45901;47.600;9.890;2023-09-19T20:34:02;1.10;;;0.60;;
60030;SDS011;45901;47.600;9.890;2023-09-19T20:36:29;1.00;;;0.70;;
60030;SDS011;45901;47.600;9.890;2023-09-19T20:38:57;0.90;;;0.50;;
60030;SDS011;45901;47.600;9.890;2023-09-19T20:41:24;0.77;;;0.47;;
60030;SDS011;45901;47.600;9.890;2023-09-19T20:43:51;1.37;;;0.60;;
60030;SDS011;45901;47.600;9.890;2023-09-19T20:46:18;2.17;;;0.40;;
60030;SDS011;45901;47.600;9.890;2023-09-19T20:48:49;2.90;;;0.63;;
60030;SDS011;45901;47.600;9.890;2023-09-19T20:51:42;1.47;;;0.80;;
60030;SDS011;45901;47.600;9.890;2023-09-19T20:54:44;1.30;;;0.60;;
60030;SDS011;45901;47.600;9.890;2023-09-19T20:58:25;1.03;;;0.60;;
60030;SDS011;45901;47.600;9.890;2023-09-19T21:01:46;0.60;;;0.60;;
